createdAt,value
2022-08-08T00:02:03.843Z,99917.06
2022-08-08T00:04:49.141Z,99921.59
2022-08-08T00:07:48.171Z,99913.78
2022-08-08T00:10:29.882Z,99914.81
2022-08-08T00:13:20.998Z,99907.41
2022-08-08T00:16:16.534Z,99917.53
2022-08-08T00:18:48.233Z,99919.56
2022-08-08T00:21:26.720Z,99928.22
2022-08-08T00:24:11.772Z,99918.75
2022-08-08T00:26:50.383Z,99913.81
2022-08-08T00:29:44.139Z,99913.41
2022-08-08T00:33:02.049Z,99912.19
2022-08-08T00:35:37.347Z,99907.84
2022-08-08T00:38:31.303Z,99908.44
2022-08-08T00:41:55.565Z,99910.91
2022-08-08T00:44:52.857Z,99911.31
2022-08-08T00:48:04.944Z,99912.56
2022-08-08T00:51:02.305Z,99914.81
2022-08-08T00:53:43.418Z,99916.06
2022-08-08T00:57:04.213Z,99919.13
2022-08-08T00:59:59.427Z,99917.88
2022-08-08T01:03:57.632Z,99911.13
2022-08-08T01:06:27.001Z,99920.34
2022-08-08T01:09:36.117Z,99918.31
2022-08-08T01:12:47.302Z,99916.66
2022-08-08T01:15:44.292Z,99919.72
2022-08-08T01:18:53.523Z,99913.31
2022-08-08T01:22:07.523Z,99911.06
2022-08-08T01:24:54.172Z,99913.34
2022-08-08T01:27:46.109Z,99920.09
2022-08-08T01:31:00.534Z,99912.50
2022-08-08T01:34:00.889Z,99917.22
2022-08-08T01:37:01.862Z,99922.53
2022-08-08T01:39:53.581Z,99915.13
2022-08-08T01:42:36.231Z,99908.31
2022-08-08T01:45:41.298Z,99913.25
2022-08-08T01:48:34.124Z,99909.94
2022-08-08T01:51:48.645Z,99904.00
2022-08-08T01:55:25.863Z,99901.91
2022-08-08T01:58:11.756Z,99907.63
2022-08-08T02:01:15.772Z,99909.25
2022-08-08T02:04:00.510Z,99911.53
2022-08-08T02:06:57.190Z,99907.81
2022-08-08T02:10:01.592Z,99910.47
2022-08-08T02:12:50.555Z,99909.88
2022-08-08T02:15:38.853Z,99908.59
2022-08-08T02:18:27.212Z,99908.00
2022-08-08T02:21:36.394Z,99913.91
2022-08-08T02:24:19.864Z,99908.16
2022-08-08T02:27:12.913Z,99904.06
2022-08-08T02:30:05.943Z,99911.81
2022-08-08T02:33:21.409Z,99913.25
2022-08-08T02:36:16.308Z,99912.00
2022-08-08T02:39:01.050Z,99908.88
2022-08-08T02:41:59.048Z,99909.09
2022-08-08T02:45:18.474Z,99922.63
2022-08-08T02:48:14.744Z,99922.00
2022-08-08T02:51:05.357Z,99927.94
2022-08-08T02:54:00.652Z,99930.19
2022-08-08T02:56:52.420Z,99933.88
2022-08-08T03:00:01.645Z,99925.41
2022-08-08T03:05:00.697Z,99928.03
2022-08-08T03:06:46.146Z,99937.03
2022-08-08T03:09:41.487Z,99936.19
2022-08-08T03:12:36.702Z,99926.13
2022-08-08T03:15:56.483Z,99935.13
2022-08-08T03:18:46.544Z,99938.19
2022-08-08T03:21:26.968Z,99937.34
2022-08-08T03:24:11.775Z,99934.91
2022-08-08T03:27:05.297Z,99939.59
2022-08-08T03:29:54.809Z,99928.28
2022-08-08T03:32:56.918Z,99934.19
2022-08-08T03:35:38.698Z,99932.75
2022-08-08T03:38:57.989Z,99932.47
2022-08-08T03:41:08.873Z,99936.53
2022-08-08T03:43:59.582Z,99932.22
2022-08-08T03:46:50.403Z,99934.28
2022-08-08T03:50:01.196Z,99940.63
2022-08-08T03:52:19.395Z,99941.44
2022-08-08T03:55:09.793Z,99945.94
2022-08-08T03:58:29.911Z,99952.47
2022-08-08T04:01:02.275Z,99946.31
2022-08-08T04:03:57.899Z,99954.53
2022-08-08T04:06:39.499Z,99952.47
2022-08-08T04:09:16.779Z,99957.44
2022-08-08T04:12:00.433Z,99971.22
2022-08-08T04:14:47.297Z,99961.38
2022-08-08T04:17:58.336Z,99964.47
2022-08-08T04:20:14.989Z,99971.94
2022-08-08T04:22:51.588Z,99972.19
2022-08-08T04:25:27.978Z,99975.28
2022-08-08T04:28:35.037Z,99973.88
2022-08-08T04:30:58.978Z,99973.50
2022-08-08T04:33:38.646Z,99980.09
2022-08-08T04:36:14.150Z,99984.66
2022-08-08T04:38:46.011Z,99991.06
2022-08-08T04:41:21.294Z,99992.13
2022-08-08T04:43:57.202Z,99994.84
2022-08-08T04:46:31.125Z,99992.03
2022-08-08T04:49:03.727Z,99996.41
2022-08-08T04:51:54.806Z,100003.06
2022-08-08T04:54:40.178Z,100005.94
2022-08-08T04:57:15.114Z,100005.81
2022-08-08T04:59:47.608Z,100005.44
2022-08-08T05:02:20.088Z,100012.72
2022-08-08T05:04:55.545Z,99998.00
2022-08-08T05:07:38.005Z,100004.47
2022-08-08T05:10:16.347Z,99998.31
2022-08-08T05:13:01.589Z,100001.00
2022-08-08T05:16:51.150Z,100003.31
2022-08-08T05:18:27.966Z,100004.00
2022-08-08T05:21:00.602Z,100005.03
2022-08-08T05:23:41.186Z,100008.50
2022-08-08T05:26:19.745Z,100006.00
2022-08-08T05:28:57.211Z,100011.75
2022-08-08T05:32:03.444Z,100003.91
2022-08-08T05:34:47.659Z,100008.78
2022-08-08T05:37:39.017Z,100004.97
2022-08-08T05:40:21.611Z,100005.66
2022-08-08T05:43:38.629Z,100001.34
2022-08-08T05:46:07.716Z,100004.84
2022-08-08T05:48:43.733Z,100000.56
2022-08-08T05:51:25.943Z,99998.84
2022-08-08T05:54:28.036Z,99999.72
2022-08-08T05:56:53.259Z,99996.06
2022-08-08T05:59:59.390Z,100001.41
2022-08-08T06:02:52.985Z,100001.13
2022-08-08T06:05:35.460Z,100010.53
2022-08-08T06:08:33.564Z,99998.84
2022-08-08T06:11:10.993Z,99998.56
2022-08-08T06:13:50.941Z,100002.53
2022-08-08T06:16:30.377Z,99994.25
2022-08-08T06:19:25.573Z,100002.69
2022-08-08T06:21:59.463Z,100002.88
2022-08-08T06:24:40.219Z,100006.31
2022-08-08T06:27:35.961Z,99998.63
2022-08-08T06:30:26.049Z,99999.16
2022-08-08T06:33:01.035Z,99995.41
2022-08-08T06:36:07.567Z,99998.88
2022-08-08T06:38:31.904Z,100001.03
2022-08-08T06:41:08.378Z,99996.91
2022-08-08T06:43:57.129Z,99997.38
2022-08-08T06:46:33.464Z,100003.97
2022-08-08T06:49:06.405Z,100003.78
2022-08-08T06:51:52.453Z,100004.72
2022-08-08T06:54:32.559Z,99997.53
2022-08-08T06:57:05.386Z,99999.19
2022-08-08T07:00:02.605Z,100001.16
2022-08-08T07:02:36.324Z,100001.97
2022-08-08T07:05:20.648Z,99997.75
2022-08-08T07:08:09.231Z,99994.44
2022-08-08T07:10:52.021Z,99986.72
2022-08-08T07:13:28.982Z,99984.63
2022-08-08T07:16:11.743Z,99988.63
2022-08-08T07:19:07.961Z,99995.13
2022-08-08T07:21:59.156Z,99988.22
2022-08-08T07:24:44.819Z,99984.91
2022-08-08T07:27:35.481Z,99995.22
2022-08-08T07:30:21.335Z,99992.97
2022-08-08T07:33:01.343Z,99992.56
2022-08-08T07:35:37.079Z,100001.03
2022-08-08T07:38:20.321Z,99993.97
2022-08-08T07:41:06.707Z,99993.75
2022-08-08T07:43:43.033Z,100004.69
2022-08-08T07:46:30.486Z,100003.84
2022-08-08T07:49:09.848Z,100003.31
2022-08-08T07:51:44.661Z,100002.75
2022-08-08T07:54:33.291Z,100008.38
2022-08-08T07:57:36.083Z,100014.84
2022-08-08T08:00:16.790Z,100005.59
2022-08-08T08:03:20.879Z,100009.44
2022-08-08T08:05:58.748Z,99998.97
2022-08-08T08:08:50.215Z,100006.31
2022-08-08T08:11:38.101Z,100013.78
2022-08-08T08:14:35.136Z,100015.06
2022-08-08T08:17:09.768Z,100007.22
2022-08-08T08:19:46.208Z,100012.38
2022-08-08T08:22:31.467Z,100006.84
2022-08-08T08:25:07.748Z,100006.63
2022-08-08T08:27:47.017Z,100012.88
2022-08-08T08:30:19.739Z,100009.31
2022-08-08T08:32:52.253Z,100019.34
2022-08-08T08:35:29.925Z,100020.69
2022-08-08T08:38:20.878Z,100016.16
2022-08-08T08:41:06.149Z,100016.34
2022-08-08T08:43:52.133Z,100028.75
2022-08-08T08:46:26.114Z,100018.00
2022-08-08T08:48:59.284Z,100025.66
2022-08-08T08:51:31.956Z,100022.66
2022-08-08T08:54:08.056Z,100027.81
2022-08-08T08:56:42.379Z,100030.81
2022-08-08T08:59:58.695Z,100020.47
2022-08-08T09:02:21.798Z,100012.06
2022-08-08T09:04:59.382Z,100012.03
2022-08-08T09:07:39.356Z,100015.97
2022-08-08T09:10:28.999Z,100013.34
2022-08-08T09:13:02.662Z,100009.53
2022-08-08T09:15:41.024Z,100017.75
2022-08-08T09:18:18.751Z,100014.47
2022-08-08T09:21:57.303Z,100019.16
2022-08-08T09:23:46.533Z,100012.84
2022-08-08T09:26:32.518Z,100015.00
2022-08-08T09:29:37.035Z,100016.59
2022-08-08T09:32:38.403Z,100021.63
2022-08-08T09:35:20.703Z,100027.34
2022-08-08T09:38:05.664Z,100009.38
2022-08-08T09:40:51.311Z,100015.44
2022-08-08T09:44:05.155Z,100014.03
2022-08-08T09:46:25.805Z,100006.06
2022-08-08T09:49:18.544Z,100014.25
2022-08-08T09:52:01.814Z,100007.44
2022-08-08T09:54:44.700Z,100004.06
2022-08-08T09:57:45.668Z,100004.28
2022-08-08T10:00:49.768Z,100007.16
2022-08-08T10:03:19.818Z,100001.00
2022-08-08T10:05:52.131Z,100002.75
2022-08-08T10:08:23.825Z,100008.75
2022-08-08T10:10:58.721Z,100001.72
2022-08-08T10:13:36.123Z,99996.81
2022-08-08T10:16:13.702Z,99988.59
2022-08-08T10:18:46.373Z,99997.19
2022-08-08T10:21:26.237Z,99998.13
2022-08-08T10:24:11.992Z,99991.94
2022-08-08T10:27:05.582Z,99991.91
2022-08-08T10:30:00.074Z,99997.88
2022-08-08T10:32:34.410Z,99998.41
2022-08-08T10:36:06.622Z,99996.81
2022-08-08T10:38:15.151Z,99998.16
2022-08-08T10:40:53.298Z,99995.72
2022-08-08T10:43:36.529Z,99990.81
2022-08-08T10:46:29.576Z,99998.16
2022-08-08T10:49:01.854Z,99985.38
2022-08-08T10:51:47.259Z,99992.97
2022-08-08T10:54:25.090Z,99995.63
2022-08-08T10:57:00.286Z,99995.19
2022-08-08T10:59:39.730Z,99995.69
2022-08-08T11:02:12.684Z,99990.81
2022-08-08T11:04:53.672Z,99982.91
2022-08-08T11:08:30.044Z,99978.91
2022-08-08T11:10:28.819Z,99980.03
2022-08-08T11:13:28.814Z,99975.84
2022-08-08T11:16:00.820Z,99981.53
2022-08-08T11:18:39.968Z,99981.28
2022-08-08T11:21:19.550Z,99979.94
2022-08-08T11:24:01.638Z,99970.94
2022-08-08T11:26:56.311Z,99972.31
2022-08-08T11:29:50.800Z,99973.13
2022-08-08T11:32:29.462Z,99973.91
2022-08-08T11:35:25.975Z,99968.47
2022-08-08T11:38:38.692Z,99968.78
2022-08-08T11:40:55.880Z,99963.34
2022-08-08T11:43:38.596Z,99956.00
2022-08-08T11:46:17.873Z,99962.81
2022-08-08T11:48:50.839Z,99958.47
2022-08-08T11:51:38.438Z,99955.44
2022-08-08T11:54:31.529Z,99962.44
2022-08-08T11:57:27.362Z,99956.47
2022-08-08T12:00:05.325Z,99953.88
2022-08-08T12:02:57.586Z,99956.56
2022-08-08T12:05:34.546Z,99941.09
2022-08-08T12:08:07.723Z,99953.03
2022-08-08T12:10:48.938Z,99946.25
2022-08-08T12:13:37.603Z,99941.88
2022-08-08T12:16:19.862Z,99951.66
2022-08-08T12:18:53.817Z,99947.34
2022-08-08T12:21:59.197Z,99943.25
2022-08-08T12:24:27.700Z,99939.63
2022-08-08T12:27:00.279Z,99939.91
2022-08-08T12:29:41.856Z,99938.34
2022-08-08T12:32:19.821Z,99939.63
2022-08-08T12:35:04.419Z,99939.34
2022-08-08T12:37:48.167Z,99925.00
2022-08-08T12:40:56.891Z,99924.47
2022-08-08T12:43:49.715Z,99916.00
2022-08-08T12:46:28.959Z,99927.41
2022-08-08T12:52:00.058Z,99918.19
2022-08-08T12:54:36.679Z,99925.84
2022-08-08T12:57:24.190Z,99922.59
2022-08-08T13:00:05.053Z,99923.41
2022-08-08T13:02:51.504Z,99923.41
2022-08-08T13:05:27.117Z,99931.00
2022-08-08T13:08:19.779Z,99919.47
2022-08-08T13:10:56.751Z,99932.44
2022-08-08T13:13:37.061Z,99923.78
2022-08-08T13:16:25.534Z,99915.44
2022-08-08T13:19:09.203Z,99920.28
2022-08-08T13:21:53.251Z,99918.63
2022-08-08T13:24:48.550Z,99911.06
2022-08-08T13:27:29.968Z,99909.97
2022-08-08T13:30:08.740Z,99917.28
2022-08-08T13:32:42.197Z,99908.03
2022-08-08T13:35:25.018Z,99912.66
2022-08-08T13:38:08.508Z,99914.84
2022-08-08T13:40:45.860Z,99920.28
2022-08-08T13:43:18.667Z,99916.50
2022-08-08T13:45:52.695Z,99914.00
2022-08-08T13:48:26.189Z,99906.88
2022-08-08T13:51:33.518Z,99903.81
2022-08-08T13:54:00.013Z,99909.00
2022-08-08T13:56:53.597Z,99909.34
2022-08-08T13:59:39.230Z,99902.06
2022-08-08T14:02:14.653Z,99905.63
2022-08-08T14:05:21.755Z,99896.66
2022-08-08T14:07:59.407Z,99905.63
2022-08-08T14:10:37.495Z,99898.22
2022-08-08T14:13:30.404Z,99900.13
2022-08-08T14:16:15.860Z,99897.91
2022-08-08T14:19:00.582Z,99894.38
2022-08-08T14:21:52.266Z,99898.16
2022-08-08T14:24:33.346Z,99892.19
2022-08-08T14:27:18.817Z,99900.53
2022-08-08T14:30:17.114Z,99893.09
2022-08-08T14:32:53.255Z,99886.31
2022-08-08T14:35:35.123Z,99887.63
2022-08-08T14:38:33.919Z,99884.13
2022-08-08T14:41:45.276Z,99887.88
2022-08-08T14:44:19.582Z,99881.63
2022-08-08T14:47:01.428Z,99884.34
2022-08-08T14:49:51.518Z,99894.94
2022-08-08T14:52:26.429Z,99894.94
2022-08-08T14:54:59.082Z,99888.44
2022-08-08T14:58:06.495Z,99899.72
2022-08-08T15:00:23.798Z,99898.84
2022-08-08T15:03:14.242Z,99899.59
2022-08-08T15:05:54.712Z,99902.09
2022-08-08T15:08:33.525Z,99896.94
2022-08-08T15:11:11.686Z,99892.94
2022-08-08T15:14:01.657Z,99890.28
2022-08-08T15:16:35.110Z,99896.56
2022-08-08T15:19:07.131Z,99891.81
2022-08-08T15:21:42.838Z,99893.97
2022-08-08T15:24:15.892Z,99888.56
2022-08-08T15:26:53.125Z,99888.81
2022-08-08T15:29:25.601Z,99886.66
2022-08-08T15:32:18.985Z,99888.53
2022-08-08T15:34:49.626Z,99890.69
2022-08-08T15:37:21.721Z,99892.53
2022-08-08T15:39:54.009Z,99884.25
2022-08-08T15:42:41.517Z,99882.34
2022-08-08T15:45:13.233Z,99879.09
2022-08-08T15:48:05.270Z,99875.28
2022-08-08T15:50:56.549Z,99888.81
2022-08-08T15:53:33.174Z,99882.00
2022-08-08T15:56:13.150Z,99877.41
2022-08-08T15:58:48.237Z,99878.13
2022-08-08T16:01:21.008Z,99876.91
2022-08-08T16:03:54.212Z,99882.16
2022-08-08T16:06:28.368Z,99876.50
2022-08-08T16:13:02.147Z,99877.25
2022-08-08T16:13:03.182Z,99867.59
2022-08-08T16:14:52.663Z,99881.00
2022-08-08T16:17:38.739Z,99881.69
2022-08-08T16:20:17.521Z,99873.75
2022-08-08T16:22:52.176Z,99879.50
2022-08-08T16:25:45.689Z,99881.72
2022-08-08T16:28:22.704Z,99881.00
2022-08-08T16:31:07.978Z,99882.25
2022-08-08T16:33:41.205Z,99875.56
2022-08-08T16:36:27.978Z,99880.56
2022-08-08T16:39:17.062Z,99878.59
2022-08-08T16:42:01.000Z,99871.81
2022-08-08T16:44:34.479Z,99874.53
2022-08-08T16:47:40.382Z,99873.75
2022-08-08T16:50:16.664Z,99888.69
2022-08-08T16:55:03.233Z,99883.63
2022-08-08T16:55:55.736Z,99883.13
2022-08-08T16:58:32.586Z,99877.28
2022-08-08T17:01:10.936Z,99888.56
2022-08-08T17:03:58.711Z,99884.53
2022-08-08T17:06:36.797Z,99893.78
2022-08-08T17:09:15.095Z,99893.19
2022-08-08T17:11:49.218Z,99891.78
2022-08-08T17:14:27.623Z,99895.22
2022-08-08T17:17:23.051Z,99897.34
2022-08-08T17:19:59.676Z,99893.69
2022-08-08T17:22:39.393Z,99900.66
2022-08-08T17:25:14.229Z,99901.41
2022-08-08T17:27:49.779Z,99898.91
2022-08-08T17:30:29.104Z,99911.78
2022-08-08T17:34:36.683Z,99900.97
2022-08-08T17:36:10.017Z,99909.19
2022-08-08T17:38:43.072Z,99906.19
2022-08-08T17:41:15.597Z,99910.19
2022-08-08T17:44:00.921Z,99907.00
2022-08-08T17:46:42.742Z,99904.13
2022-08-08T17:49:23.985Z,99914.69
2022-08-08T17:51:56.603Z,99910.84
2022-08-08T17:54:29.051Z,99914.56
2022-08-08T17:57:03.510Z,99915.53
2022-08-08T17:59:45.612Z,99917.84
2022-08-08T18:02:21.305Z,99918.78
2022-08-08T18:04:55.218Z,99928.22
2022-08-08T18:08:03.375Z,99919.19
2022-08-08T18:10:31.767Z,99921.63
2022-08-08T18:13:07.476Z,99930.53
2022-08-08T18:15:40.713Z,99934.06
2022-08-08T18:18:28.616Z,99939.16
2022-08-08T18:21:10.446Z,99935.88
2022-08-08T18:23:55.848Z,99945.31
2022-08-08T18:26:28.937Z,99943.59
2022-08-08T18:29:01.607Z,99945.13
2022-08-08T18:31:33.374Z,99949.91
2022-08-08T18:34:25.674Z,99959.91
2022-08-08T18:36:57.512Z,99956.63
2022-08-08T18:39:29.420Z,99958.41
2022-08-08T18:42:03.663Z,99965.47
2022-08-08T18:44:36.206Z,99965.69
2022-08-08T18:47:07.948Z,99972.16
2022-08-08T18:49:41.162Z,99974.84
2022-08-08T18:52:33.925Z,99978.53
2022-08-08T18:55:10.292Z,99984.44
2022-08-08T18:57:44.893Z,99983.78
2022-08-08T19:00:20.221Z,99988.34
2022-08-08T19:03:04.226Z,99995.88
2022-08-08T19:05:45.105Z,100003.78
2022-08-08T19:08:25.644Z,100007.53
2022-08-08T19:11:02.164Z,100008.44
2022-08-08T19:13:47.284Z,100013.84
2022-08-08T19:16:28.473Z,100010.34
2022-08-08T19:19:12.352Z,100008.72
2022-08-08T19:21:49.490Z,100011.88
2022-08-08T19:24:42.776Z,100021.03
2022-08-08T19:27:14.914Z,100021.16
2022-08-08T19:29:46.707Z,100029.97
2022-08-08T19:32:25.457Z,100031.31
2022-08-08T19:34:57.157Z,100041.19
2022-08-08T19:37:43.543Z,100039.75
2022-08-08T19:40:21.967Z,100051.84
2022-08-08T19:43:02.870Z,100049.03
2022-08-08T19:45:59.397Z,100050.59
2022-08-08T19:48:33.504Z,100062.22
2022-08-08T19:51:05.230Z,100055.22
2022-08-08T19:53:53.501Z,100061.19
2022-08-08T19:56:40.247Z,100060.47
2022-08-08T19:59:13.111Z,100054.25
2022-08-08T20:02:01.006Z,100063.50
2022-08-08T20:04:34.071Z,100073.59
2022-08-08T20:08:27.917Z,100072.66
2022-08-08T20:10:00.702Z,100069.25
2022-08-08T20:12:35.397Z,100060.56
2022-08-08T20:15:16.780Z,100066.91
2022-08-08T20:17:48.914Z,100070.88
2022-08-08T20:20:22.195Z,100069.69
2022-08-08T20:22:56.968Z,100078.69
2022-08-08T20:25:30.067Z,100078.56
2022-08-08T20:28:07.882Z,100077.41
2022-08-08T20:30:55.938Z,100079.94
2022-08-08T20:34:27.719Z,100080.47
2022-08-08T20:36:23.077Z,100082.44
2022-08-08T20:38:59.439Z,100084.44
2022-08-08T20:41:35.303Z,100089.28
2022-08-08T20:44:07.306Z,100092.41
2022-08-08T20:46:40.700Z,100096.06
2022-08-08T20:49:21.868Z,100099.41
2022-08-08T20:51:53.602Z,100097.41
2022-08-08T20:54:28.251Z,100103.00
2022-08-08T20:57:04.045Z,100104.28
2022-08-08T20:59:48.738Z,100103.31
2022-08-08T21:02:25.747Z,100101.06
2022-08-08T21:05:01.178Z,100111.69
2022-08-08T21:08:33.635Z,100107.41
2022-08-08T21:10:28.449Z,100099.38
2022-08-08T21:13:01.568Z,100099.47
2022-08-08T21:16:05.650Z,100104.47
2022-08-08T21:18:28.184Z,100094.25
2022-08-08T21:21:00.203Z,100101.91
2022-08-08T21:23:58.983Z,100097.19
2022-08-08T21:26:27.299Z,100094.00
2022-08-08T21:29:00.557Z,100099.81
2022-08-08T21:31:58.700Z,100093.84
2022-08-08T21:34:24.040Z,100100.00
2022-08-08T21:37:11.472Z,100102.94
2022-08-08T21:39:56.651Z,100103.97
2022-08-08T21:42:28.812Z,100108.53
2022-08-08T21:45:20.814Z,100110.41
2022-08-08T21:48:06.451Z,100103.44
2022-08-08T21:50:43.596Z,100107.00
2022-08-08T21:54:22.798Z,100106.84
2022-08-08T21:56:20.043Z,100114.31
2022-08-08T21:59:01.630Z,100110.41
2022-08-08T22:01:40.616Z,100109.00
2022-08-08T22:04:13.173Z,100107.34
2022-08-08T22:06:47.074Z,100113.13
2022-08-08T22:09:18.937Z,100116.88
2022-08-08T22:12:04.516Z,100112.94
2022-08-08T22:14:42.759Z,100122.91
2022-08-08T22:17:17.104Z,100120.66
2022-08-08T22:20:12.399Z,100115.50
2022-08-08T22:22:40.770Z,100117.19
2022-08-08T22:25:24.802Z,100119.50
2022-08-08T22:28:02.498Z,100121.78
2022-08-08T22:30:36.477Z,100124.31
2022-08-08T22:34:10.895Z,100127.66
2022-08-08T22:36:12.479Z,100132.44
2022-08-08T22:38:48.250Z,100121.75
2022-08-08T22:41:23.331Z,100124.03
2022-08-08T22:44:02.731Z,100125.28
2022-08-08T22:46:39.013Z,100127.56
2022-08-08T22:49:11.591Z,100129.03
2022-08-08T22:51:49.582Z,100126.19
2022-08-08T22:54:30.101Z,100126.59
2022-08-08T22:57:17.958Z,100133.44
2022-08-08T22:59:59.281Z,100128.06
2022-08-08T23:02:32.005Z,100130.34
2022-08-08T23:05:07.600Z,100127.25
2022-08-08T23:07:51.644Z,100129.53
2022-08-08T23:10:29.580Z,100132.63
2022-08-08T23:13:01.221Z,100126.06
2022-08-08T23:16:41.522Z,100125.66
2022-08-08T23:18:28.465Z,100134.94
2022-08-08T23:21:04.517Z,100136.22
2022-08-08T23:23:48.396Z,100124.88
2022-08-08T23:26:20.529Z,100128.00
2022-08-08T23:28:54.834Z,100129.00
2022-08-08T23:31:26.439Z,100130.25
2022-08-08T23:34:16.474Z,100131.50
2022-08-08T23:36:57.927Z,100132.13
2022-08-08T23:39:41.490Z,100131.09
2022-08-08T23:42:13.928Z,100127.81
2022-08-08T23:44:47.992Z,100128.41
2022-08-08T23:48:59.645Z,100128.03
2022-08-08T23:50:29.835Z,100131.09
2022-08-08T23:53:03.689Z,100133.00
2022-08-08T23:55:42.089Z,100127.19
2022-08-08T23:58:31.880Z,100126.81
